createdAt,value
2023-05-16T00:01:40.611Z,6.05
2023-05-16T00:04:42.679Z,5.90
2023-05-16T00:07:46.376Z,8.60
2023-05-16T00:10:48.385Z,6.35
2023-05-16T00:13:50.433Z,6.75
2023-05-16T00:16:55.185Z,8.43
2023-05-16T00:19:57.194Z,4.97
2023-05-16T00:22:59.257Z,5.65
2023-05-16T00:26:01.258Z,9.25
2023-05-16T00:29:03.413Z,6.82
2023-05-16T00:32:06.485Z,9.57
2023-05-16T00:35:09.399Z,8.38
2023-05-16T00:38:11.505Z,8.60
2023-05-16T00:41:14.307Z,7.95
2023-05-16T00:44:16.402Z,9.70
2023-05-16T00:47:18.415Z,8.07
2023-05-16T00:50:20.982Z,6.93
2023-05-16T00:53:24.749Z,10.20
2023-05-16T00:56:26.790Z,8.13
2023-05-16T00:59:29.201Z,7.43
2023-05-16T01:02:32.135Z,7.60
2023-05-16T01:05:34.623Z,6.57
2023-05-16T01:08:36.605Z,7.60
2023-05-16T01:11:47.680Z,10.18
2023-05-16T01:15:07.572Z,11.20
2023-05-16T01:18:30.066Z,11.60
2023-05-16T01:21:48.787Z,9.85
2023-05-16T01:25:06.006Z,12.35
2023-05-16T01:28:09.362Z,10.95
2023-05-16T01:31:11.438Z,7.20
2023-05-16T01:34:13.687Z,9.18
2023-05-16T01:37:29.471Z,10.82
2023-05-16T01:40:45.980Z,10.30
2023-05-16T01:43:54.377Z,9.13
2023-05-16T01:47:00.145Z,12.43
2023-05-16T01:50:15.720Z,9.60
2023-05-16T01:53:25.797Z,6.68
2023-05-16T01:56:29.000Z,8.93
2023-05-16T01:59:32.144Z,9.25
2023-05-16T02:02:34.215Z,11.57
2023-05-16T02:05:36.356Z,8.45
2023-05-16T02:08:38.434Z,11.95
2023-05-16T02:11:40.453Z,12.10
2023-05-16T02:14:42.492Z,10.73
2023-05-16T02:17:44.520Z,8.90
2023-05-16T02:20:46.545Z,11.43
2023-05-16T02:23:51.084Z,10.60
2023-05-16T02:26:53.063Z,12.23
2023-05-16T02:29:55.235Z,13.57
2023-05-16T02:32:57.247Z,13.68
2023-05-16T02:35:59.298Z,11.73
2023-05-16T02:39:01.634Z,10.13
2023-05-16T02:45:10.830Z,14.45
2023-05-16T02:48:13.123Z,17.17
2023-05-16T02:51:16.470Z,11.32
2023-05-16T02:54:18.970Z,9.20
2023-05-16T02:57:21.147Z,15.32
2023-05-16T03:00:25.510Z,17.83
2023-05-16T03:03:27.768Z,12.05
2023-05-16T03:09:34.993Z,13.43
2023-05-16T03:12:36.932Z,12.80
2023-05-16T03:15:38.861Z,9.73
2023-05-16T03:18:40.994Z,10.88
2023-05-16T03:21:43.031Z,15.10
2023-05-16T03:24:45.197Z,14.40
2023-05-16T03:27:47.284Z,12.48
2023-05-16T03:30:49.321Z,5.85
2023-05-16T03:33:51.360Z,11.77
2023-05-16T03:36:53.378Z,7.95
2023-05-16T03:42:58.059Z,12.70
2023-05-16T03:46:02.003Z,10.68
2023-05-16T03:49:06.474Z,11.15
2023-05-16T03:52:08.906Z,14.80
2023-05-16T03:55:11.209Z,11.00
2023-05-16T04:01:15.260Z,7.03
2023-05-16T04:04:17.187Z,11.38
2023-05-16T04:07:20.289Z,10.93
2023-05-16T04:10:23.330Z,10.70
2023-05-16T04:13:25.546Z,8.57
2023-05-16T04:16:28.473Z,7.60
2023-05-16T04:19:30.574Z,8.80
2023-05-16T04:22:32.791Z,10.93
2023-05-16T04:25:34.808Z,13.43
2023-05-16T04:28:36.976Z,10.20
2023-05-16T04:31:38.955Z,9.95
2023-05-16T04:34:40.939Z,8.55
2023-05-16T04:37:42.912Z,9.38
2023-05-16T04:40:44.866Z,18.17
2023-05-16T04:43:47.333Z,11.93
2023-05-16T04:46:49.397Z,8.90
2023-05-16T04:49:54.006Z,4.72
2023-05-16T04:52:56.628Z,8.43
2023-05-16T04:55:58.675Z,7.50
2023-05-16T04:59:00.791Z,11.00
2023-05-16T05:02:02.909Z,11.68
2023-05-16T05:08:07.866Z,8.40
2023-05-16T05:11:10.397Z,8.90
2023-05-16T05:14:12.577Z,7.40
2023-05-16T05:17:14.707Z,9.88
2023-05-16T05:20:16.893Z,10.75
2023-05-16T05:23:19.060Z,9.95
2023-05-16T05:26:22.396Z,7.15
2023-05-16T05:29:25.866Z,7.90
2023-05-16T05:32:27.977Z,12.23
2023-05-16T05:35:30.376Z,5.57
2023-05-16T05:38:32.736Z,9.80
2023-05-16T05:41:35.417Z,8.98
2023-05-16T05:44:37.572Z,7.35
2023-05-16T05:47:39.789Z,5.88
2023-05-16T05:50:43.391Z,5.10
2023-05-16T05:53:46.013Z,8.98
2023-05-16T05:56:48.217Z,4.57
2023-05-16T05:59:50.461Z,5.63
2023-05-16T06:02:52.798Z,7.30
2023-05-16T06:05:55.608Z,5.53
2023-05-16T06:08:58.494Z,4.53
2023-05-16T06:12:01.100Z,8.63
2023-05-16T06:15:03.323Z,7.45
2023-05-16T06:18:05.840Z,4.13
2023-05-16T06:21:07.859Z,5.10
2023-05-16T06:24:10.730Z,3.53
2023-05-16T06:27:12.968Z,3.08
2023-05-16T06:30:15.175Z,4.25
2023-05-16T06:33:17.389Z,3.72
2023-05-16T06:36:19.617Z,3.08
2023-05-16T06:42:23.893Z,2.70
2023-05-16T06:45:26.238Z,3.50
2023-05-16T06:48:28.888Z,2.95
2023-05-16T06:51:31.367Z,2.22
2023-05-16T06:57:35.729Z,1.08
2023-05-16T07:00:40.288Z,1.30
2023-05-16T07:03:42.603Z,0.95
2023-05-16T07:06:44.692Z,0.25
2023-05-16T07:09:46.925Z,1.77
2023-05-16T07:12:48.960Z,0.85
2023-05-16T07:15:51.050Z,0.70
2023-05-16T07:18:53.207Z,1.48
2023-05-16T07:21:55.382Z,1.77
2023-05-16T07:24:57.492Z,0.80
2023-05-16T07:27:59.603Z,0.75
2023-05-16T07:31:01.672Z,0.47
2023-05-16T07:34:03.862Z,0.30
2023-05-16T07:37:06.015Z,0.80
2023-05-16T07:40:08.948Z,2.47
2023-05-16T07:43:13.315Z,1.30
2023-05-16T07:46:16.095Z,1.30
2023-05-16T07:49:18.252Z,1.77
2023-05-16T07:52:20.457Z,0.73
2023-05-16T07:55:23.518Z,0.10
2023-05-16T07:58:26.882Z,0.82
2023-05-16T08:01:29.059Z,0.10
2023-05-16T08:04:31.731Z,0.75
2023-05-16T08:07:34.065Z,1.45
2023-05-16T08:10:36.176Z,0.70
2023-05-16T08:13:38.302Z,0.80
2023-05-16T08:16:40.543Z,1.30
2023-05-16T08:19:43.992Z,0.65
2023-05-16T08:22:46.129Z,0.22
2023-05-16T08:25:48.310Z,1.17
2023-05-16T08:28:50.370Z,2.28
2023-05-16T08:31:52.715Z,0.68
2023-05-16T08:37:56.950Z,0.65
2023-05-16T08:40:59.236Z,0.80
2023-05-16T08:47:14.905Z,0.75
2023-05-16T08:50:17.402Z,1.33
2023-05-16T08:53:25.528Z,1.23
2023-05-16T08:56:31.768Z,1.23
2023-05-16T08:59:35.192Z,6.32
2023-05-16T09:02:41.748Z,2.17
2023-05-16T09:05:43.978Z,0.20
2023-05-16T09:08:46.656Z,1.50
2023-05-16T09:11:49.280Z,1.27
2023-05-16T09:14:51.593Z,2.03
2023-05-16T09:20:56.047Z,0.68
2023-05-16T09:24:03.633Z,1.23
2023-05-16T09:27:23.960Z,0.40
2023-05-16T09:33:33.500Z,0.75
2023-05-16T09:39:40.912Z,0.95
2023-05-16T09:42:43.685Z,0.45
2023-05-16T09:45:47.460Z,3.05
2023-05-16T09:48:51.927Z,1.27
2023-05-16T09:51:55.689Z,0.93
2023-05-16T09:54:57.877Z,0.57
2023-05-16T09:58:01.463Z,1.00
2023-05-16T10:01:04.098Z,0.35
2023-05-16T10:04:06.403Z,0.60
2023-05-16T10:07:10.081Z,1.40
2023-05-16T10:10:14.084Z,1.05
2023-05-16T10:13:16.798Z,0.82
2023-05-16T10:16:21.448Z,0.63
2023-05-16T10:19:26.272Z,0.30
2023-05-16T10:22:30.170Z,0.28
2023-05-16T10:25:41.242Z,0.98
2023-05-16T10:28:44.107Z,0.52
2023-05-16T10:31:49.506Z,0.93
2023-05-16T10:34:53.176Z,0.68
2023-05-16T10:37:55.960Z,0.50
2023-05-16T10:40:58.793Z,1.52
2023-05-16T10:44:01.133Z,0.10
2023-05-16T10:50:07.183Z,0.13
2023-05-16T11:05:18.604Z,10.18
2023-05-16T11:08:20.723Z,0.50
2023-05-16T11:11:53.867Z,3.13
2023-05-16T11:14:55.933Z,1.10
2023-05-16T11:18:09.054Z,1.30
2023-05-16T11:21:11.202Z,0.25
2023-05-16T11:24:49.308Z,0.98
2023-05-16T11:27:51.641Z,1.23
2023-05-16T11:30:57.286Z,0.57
2023-05-16T11:33:59.426Z,0.95
2023-05-16T11:37:01.485Z,1.15
2023-05-16T11:40:04.655Z,0.13
2023-05-16T11:43:08.993Z,0.57
2023-05-16T11:46:15.021Z,0.65
2023-05-16T11:49:18.233Z,0.20
2023-05-16T11:52:20.279Z,0.65
2023-05-16T11:55:36.856Z,1.17
2023-05-16T11:58:43.183Z,0.80
2023-05-16T12:01:45.326Z,0.98
2023-05-16T12:04:47.983Z,1.30
2023-05-16T12:07:50.386Z,0.75
2023-05-16T12:10:53.572Z,0.63
2023-05-16T12:13:55.930Z,2.22
2023-05-16T12:20:01.163Z,3.83
2023-05-16T12:23:03.297Z,0.40
2023-05-16T12:26:07.843Z,1.13
2023-05-16T12:29:11.179Z,1.65
2023-05-16T12:35:18.580Z,1.42
2023-05-16T12:38:20.931Z,1.25
2023-05-16T12:44:30.515Z,2.10
2023-05-16T12:47:36.722Z,1.35
2023-05-16T12:50:39.712Z,2.40
2023-05-16T12:53:49.198Z,1.55
2023-05-16T12:56:56.846Z,1.38
2023-05-16T12:59:58.917Z,1.27
2023-05-16T13:03:00.968Z,1.65
2023-05-16T13:06:03.410Z,2.15
2023-05-16T13:09:05.388Z,2.65
2023-05-16T13:12:07.446Z,0.70
2023-05-16T13:15:11.176Z,2.67
2023-05-16T13:18:13.207Z,1.75
2023-05-16T13:21:15.330Z,1.95
2023-05-16T13:24:19.825Z,4.95
2023-05-16T13:27:21.988Z,3.40
2023-05-16T13:30:24.198Z,4.18
2023-05-16T13:33:28.818Z,3.95
2023-05-16T13:36:41.680Z,1.75
2023-05-16T13:39:52.868Z,4.13
2023-05-16T13:42:57.070Z,1.83
2023-05-16T13:45:59.208Z,4.15
2023-05-16T13:49:01.974Z,2.63
2023-05-16T13:52:04.302Z,3.35
2023-05-16T13:58:09.104Z,3.67
2023-05-16T14:01:11.307Z,1.65
2023-05-16T14:07:15.362Z,0.75
2023-05-16T14:10:17.420Z,9.20
2023-05-16T14:13:19.499Z,1.45
2023-05-16T14:16:22.040Z,1.83
2023-05-16T14:19:24.126Z,8.98
2023-05-16T14:22:26.226Z,2.35
2023-05-16T14:25:28.456Z,1.02
2023-05-16T14:28:30.621Z,2.28
2023-05-16T14:31:33.506Z,9.82
2023-05-16T14:34:35.670Z,2.10
2023-05-16T14:37:37.761Z,1.58
2023-05-16T14:40:39.764Z,5.13
2023-05-16T14:43:41.739Z,1.67
2023-05-16T14:46:45.016Z,1.42
2023-05-16T14:49:47.044Z,1.15
2023-05-16T14:52:49.093Z,2.78
2023-05-16T14:55:51.132Z,0.70
2023-05-16T14:58:53.124Z,3.22
2023-05-16T15:01:57.558Z,3.20
2023-05-16T15:04:59.657Z,1.80
2023-05-16T15:08:01.853Z,0.77
2023-05-16T15:11:03.934Z,0.68
2023-05-16T15:17:09.203Z,5.68
2023-05-16T15:20:12.531Z,1.75
2023-05-16T15:23:14.644Z,2.28
2023-05-16T15:26:18.358Z,1.40
2023-05-16T15:29:22.811Z,1.15
2023-05-16T15:32:24.833Z,2.88
2023-05-16T15:35:27.243Z,3.78
2023-05-16T15:38:29.460Z,0.80
2023-05-16T15:44:39.702Z,0.88
2023-05-16T15:47:43.301Z,3.20
2023-05-16T15:53:48.317Z,0.68
2023-05-16T15:56:50.753Z,1.63
2023-05-16T15:59:52.723Z,1.50
2023-05-16T16:02:54.889Z,1.15
2023-05-16T16:08:59.239Z,2.33
2023-05-16T16:12:01.559Z,3.22
2023-05-16T16:15:05.003Z,1.77
2023-05-16T16:18:07.180Z,7.50
2023-05-16T16:21:10.825Z,1.52
2023-05-16T16:24:12.908Z,0.93
2023-05-16T16:27:14.934Z,0.70
2023-05-16T16:30:17.144Z,2.53
2023-05-16T16:36:23.408Z,3.00
2023-05-16T16:39:25.759Z,0.75
2023-05-16T16:42:27.854Z,0.60
2023-05-16T16:45:30.208Z,0.77
2023-05-16T16:48:33.058Z,0.45
2023-05-16T16:51:35.156Z,0.22
2023-05-16T16:54:37.275Z,1.90
2023-05-16T16:57:39.417Z,1.80
2023-05-16T17:03:44.284Z,1.60
2023-05-16T17:06:48.385Z,3.00
2023-05-16T17:09:51.637Z,0.30
2023-05-16T17:12:53.626Z,4.90
2023-05-16T17:15:55.802Z,0.70
2023-05-16T17:21:59.920Z,1.17
2023-05-16T17:25:01.929Z,1.02
2023-05-16T17:28:04.084Z,1.10
2023-05-16T17:31:09.238Z,0.75
2023-05-16T17:34:11.226Z,2.35
2023-05-16T17:37:13.360Z,1.98
2023-05-16T17:40:15.517Z,3.08
2023-05-16T17:43:17.491Z,0.57
2023-05-16T17:46:20.886Z,2.47
2023-05-16T17:49:23.039Z,2.03
2023-05-16T17:55:27.520Z,1.42
2023-05-16T17:58:29.713Z,1.35
2023-05-16T18:01:32.166Z,1.95
2023-05-16T18:04:34.214Z,5.32
2023-05-16T18:07:36.299Z,0.47
2023-05-16T18:10:51.010Z,2.28
2023-05-16T18:13:53.629Z,0.63
2023-05-16T18:16:55.689Z,0.73
2023-05-16T18:19:57.976Z,0.68
2023-05-16T18:23:00.163Z,1.08
2023-05-16T18:26:02.255Z,1.52
2023-05-16T18:29:04.356Z,2.55
2023-05-16T18:32:09.552Z,1.55
2023-05-16T18:35:11.622Z,1.45
2023-05-16T18:38:28.169Z,1.42
2023-05-16T18:41:34.535Z,0.30
2023-05-16T18:47:39.043Z,0.68
2023-05-16T18:50:43.459Z,3.78
2023-05-16T18:53:45.484Z,0.95
2023-05-16T18:56:47.590Z,1.90
2023-05-16T18:59:51.601Z,3.22
2023-05-16T19:02:55.037Z,2.38
2023-05-16T19:05:57.303Z,1.75
2023-05-16T19:12:01.363Z,1.25
2023-05-16T19:15:03.744Z,0.82
2023-05-16T19:21:08.016Z,2.25
2023-05-16T19:24:10.183Z,1.27
2023-05-16T19:27:12.331Z,1.13
2023-05-16T19:30:16.652Z,1.80
2023-05-16T19:33:18.717Z,1.13
2023-05-16T19:36:20.683Z,0.93
2023-05-16T19:39:22.744Z,1.65
2023-05-16T19:42:24.770Z,0.93
2023-05-16T19:45:27.639Z,0.68
2023-05-16T19:48:29.909Z,0.68
2023-05-16T19:51:41.442Z,0.65
2023-05-16T19:54:44.336Z,1.98
2023-05-16T19:57:48.631Z,1.00
2023-05-16T20:00:50.653Z,1.48
2023-05-16T20:03:52.754Z,0.98
2023-05-16T20:06:54.835Z,0.65
2023-05-16T20:09:57.168Z,1.00
2023-05-16T20:16:01.306Z,0.80
2023-05-16T20:19:03.424Z,3.20
2023-05-16T20:22:05.525Z,2.10
2023-05-16T20:25:08.592Z,1.30
2023-05-16T20:28:10.621Z,2.15
2023-05-16T20:31:12.618Z,3.25
2023-05-16T20:34:15.023Z,0.73
2023-05-16T20:37:23.322Z,3.05
2023-05-16T20:40:26.957Z,1.92
2023-05-16T20:43:28.975Z,0.45
2023-05-16T20:46:30.952Z,1.05
2023-05-16T20:49:33.856Z,3.00
2023-05-16T20:52:35.885Z,1.25
2023-05-16T20:55:37.953Z,1.20
2023-05-16T20:58:40.028Z,0.73
2023-05-16T21:01:42.088Z,0.40
2023-05-16T21:04:44.233Z,0.73
2023-05-16T21:07:46.339Z,0.93
2023-05-16T21:10:48.365Z,3.17
2023-05-16T21:13:50.399Z,0.93
2023-05-16T21:16:52.415Z,0.98
2023-05-16T21:19:54.575Z,0.65
2023-05-16T21:22:56.581Z,2.08
2023-05-16T21:25:58.662Z,0.15
2023-05-16T21:29:00.824Z,0.82
2023-05-16T21:32:02.854Z,0.85
2023-05-16T21:35:06.983Z,0.47
2023-05-16T21:38:08.989Z,1.00
2023-05-16T21:41:11.073Z,0.77
2023-05-16T21:44:13.044Z,0.73
2023-05-16T21:47:15.089Z,0.95
2023-05-16T21:50:17.064Z,2.00
2023-05-16T21:53:19.098Z,1.55
2023-05-16T21:56:21.368Z,0.93
2023-05-16T21:59:24.956Z,9.85
2023-05-16T22:02:26.976Z,1.67
2023-05-16T22:05:29.221Z,2.00
2023-05-16T22:08:31.405Z,3.45
2023-05-16T22:11:33.503Z,1.35
2023-05-16T22:14:35.747Z,1.17
2023-05-16T22:17:37.947Z,0.90
2023-05-16T22:20:41.466Z,1.33
2023-05-16T22:23:43.517Z,0.73
2023-05-16T22:26:47.987Z,1.33
2023-05-16T22:29:50.741Z,2.80
2023-05-16T22:32:53.032Z,4.80
2023-05-16T22:35:55.514Z,0.43
2023-05-16T22:39:00.710Z,0.73
2023-05-16T22:42:03.902Z,2.60
2023-05-16T22:48:09.949Z,0.98
2023-05-16T22:51:12.285Z,1.33
2023-05-16T22:54:14.427Z,1.38
2023-05-16T22:57:19.987Z,2.72
2023-05-16T23:00:23.208Z,1.33
2023-05-16T23:03:25.976Z,0.40
2023-05-16T23:06:31.086Z,3.05
2023-05-16T23:09:33.514Z,1.23
2023-05-16T23:12:35.753Z,1.05
2023-05-16T23:18:40.322Z,0.77
2023-05-16T23:24:44.940Z,0.75
2023-05-16T23:27:48.127Z,1.95
2023-05-16T23:30:50.427Z,2.25
2023-05-16T23:33:53.025Z,3.40
2023-05-16T23:36:55.962Z,0.85
2023-05-16T23:39:58.727Z,2.60
2023-05-16T23:46:03.379Z,2.10
2023-05-16T23:52:08.012Z,5.90
2023-05-16T23:55:10.313Z,3.13
2023-05-16T23:58:13.110Z,2.78
